Umiat, Alaska
Current Conditions -  °F | °C
As of 12:53 AM on Tuesday 21 Oct 2014 (Local Time) from PAQT Reporting Station
Blowing Snow Blowing Snow  
Wind Chill:   Ceiling: 800
Heat Index: 23°   Visibility: 5mi
Dew Point: 20°   Wind: 32mph
Humidity: 88%   Direction: 50°NE
Pressure: 29.76"   Gusts: 47mph
Location:  69.37°N, 152.13°W
Report Text: PAQT 210853Z AUTO 05028G41KT 5SM BLSN BR OVC008 M05/M07 A2976 RMK PK WND 05042/0834 SNE10B24E42 SLP078 6//// I3000 T10501067 410171050 51010 TSNO PNO $ VIA AUTODIAL
Loading
Personal Weather Stations






























Interactive Weather Map
Tropical Storm Tracking
New forecast layout! Learn more

10-Day Weather Forecast

Advertisements
Track Severe Weather on mobile